首页
METAR-TAF:

METAR-TAF

机场 :

布卡拉曼加, 哥伦比亚

纬度: 07-06N, 经度: 073-12W, 海拔: 1189米

当前天气观测

该预报发布于50分钟前的01:00 UTC
风速4节,风向西北
温度 22°C
湿度 94%
气压 1016 hPa
能见度10公里或以上
散云层高于1000英尺
多云层高于7000英尺

METAR: SKBG 250100Z 32004KT 9999 SCT010 BKN070 22/21 Q1016

时间: 20:50 (01:50 UTC)

预报

该预报发布于3小时和20分钟前的22:30 UTC
预报有效从25日的 00点(UTC)到 25日的 24点(UTC)
风速2节,风向多变
能见度10公里或以上
多云层高于1000英尺
短暂存在
从 25日的 01点(UTC)到 25日的 06点(UTC)
能見度: 2000
多云层高于800英尺, 积雨云.
雷暴, 雨
几率 40% :
短暂存在
从 25日的 10点(UTC)到 25日的 13点(UTC)
能見度: 1000
多云层高于600英尺
碎片雾
成为
从 25日的 16点(UTC)到 25日的 18点(UTC)
风速8节,风向西北
散云层高于1500英尺

TAF: SKBG 242230Z 2500/2524 VRB02KT 9999 BKN010 TEMPO 2501/2506 2000 TSRA BKN008CB PROB40 TEMPO 2510/2513 1000 BCFG BKN006 BECMG 2516/2518 32008KT SCT015 TX28/2519Z TN20/2510Z

超过4000个机场的气象观测和天气预报(METAR&TAF报告)。

可查询的气象台以黄色和红色小点在地图上表示。

将鼠标移到小点上方,可查看气象台名称。

然后点击查看天气观测和预报。

如需切换地图:点击带黑十字的绿色按钮放大地图;点击带横线的绿色按钮缩小地图;或者点击绿色箭头查看邻近地区的地图。


METAR-TAF: